CheckWX is a tool to help pilots better visualize weather data.  It is not intended as a substitute for an official pre-flight weather briefing.

22:30:36 UTC

9A5 METAR
Barwick Lafayette Airport
Lafayette, Georgia, USA
Current

16 mins ago

K9A5 152215Z AUTO 22004KT 7SM CLR 31/20 A3010 RMK AO2 T03070202
Observed
Jul-15 @ 22:15 UTC
Wind
  • 220° at 4 KTS
Visibility
7 SM
Flight Rules
VFR
Cloud Levels
  • Clear skies
Temperature
31°C / 88°F
Dewpoint
20°C / 68°F
Heat Index
33°C / 92°F
Humidity
52%
Altimeter
30.1" Hg
Pressure
1019.32 hPa
Previous

36 mins ago

K9A5 152155Z AUTO 22005KT 5SM CLR 31/20 A3011 RMK AO2 T03100195
Observed
Jul-15 @ 21:55 UTC
Wind
  • 220° at 5 KTS
Visibility
5 SM
Flight Rules
MVFR
Cloud Levels
  • Clear skies
Temperature
31°C / 88°F
Dewpoint
20°C / 68°F
Heat Index
33°C / 92°F
Humidity
52%
Altimeter
30.11" Hg
Pressure
1019.62 hPa
Previous

56 mins ago

K9A5 152135Z AUTO 22003KT 7SM CLR 31/20 A3011 RMK AO2 T03050200
Observed
Jul-15 @ 21:35 UTC
Wind
  • 220° at 3 KTS
Visibility
7 SM
Flight Rules
VFR
Cloud Levels
  • Clear skies
Temperature
31°C / 88°F
Dewpoint
20°C / 68°F
Heat Index
33°C / 92°F
Humidity
52%
Altimeter
30.11" Hg
Pressure
1019.62 hPa